»·PEaware :: UAL733 KSJC-KSEA

UAL733 :: KSJC-KSEA

FLIGHT INFORMATION

Flight Status: Arrived
Operator:
United Airlines
More flights by this operator :: More flights under this callsign
Pilot: Kent M. (15083)
Aircraft: AIRBUS A320
(A320)
More flights by this aircraft type
Origin: KSJC Mineta San Jose Intl
United States
Destination: KSEA Seattle-Tacoma Intl
United States
More flights between these airports :: More routes between these airports
Route: TECKY3 TECKY SJC BMRNG HRNER RBL LMT HAWKZ7
File this flight plan on PilotEdge
Remarks:
Altitude:
(Current/Filed)
32,000ft
Speed:
(Current/Filed)
460kts
Departed: 21-Feb-21 07:01 PM
Arrived: 21-Feb-21 09:00 PM
Distance/Time
Traveled:
605nm/1:59
Distance/Time
To Go:
Arrived

Flight Plot

Page will automatically refresh every two minutes.

Flight plan parsing failed; only flown route is shown


Map Options




Map Legend


Flown Route
Filed Route
Departure Airport
Arrival Airport
Navaid (VOR, NDB)
Fix

Horizontal Profiles

Position Reports

Time Latitude Longitude Heading Altitude Ground
Speed
21-Feb-21 18:44 37.371472 -121.932716 119 60ft 0kts
21-Feb-21 18:45 37.371472 -121.932716 119 60ft 0kts
21-Feb-21 18:46 37.371472 -121.932716 119 60ft 0kts
21-Feb-21 18:47 37.371472 -121.932716 119 60ft 0kts
21-Feb-21 18:48 37.371472 -121.932716 119 60ft 0kts
21-Feb-21 18:49 37.371472 -121.932716 119 60ft 0kts
21-Feb-21 18:50 37.371517 -121.932817 119 60ft 1kts
21-Feb-21 18:51 37.371816 -121.933490 119 60ft 0kts
21-Feb-21 18:52 37.371816 -121.933490 119 60ft 0kts
21-Feb-21 18:53 37.371816 -121.933490 119 60ft 0kts
21-Feb-21 18:54 37.371273 -121.933263 174 60ft 7kts
21-Feb-21 18:55 37.367575 -121.929469 139 60ft 25kts
21-Feb-21 18:56 37.362834 -121.924273 139 61ft 22kts
21-Feb-21 18:57 37.358840 -121.919884 138 61ft 22kts
21-Feb-21 18:58 37.353967 -121.914526 138 61ft 6kts
21-Feb-21 18:59 37.353135 -121.914352 233 61ft 0kts
21-Feb-21 19:00 37.353641 -121.916756 318 63ft 48kts
21-Feb-21 19:01 37.378920 -121.943490 344 1535ft 135kts
21-Feb-21 19:02 37.378852 -121.893127 124 3393ft 248kts
21-Feb-21 19:03 37.337455 -121.815355 128 5471ft 274kts
21-Feb-21 19:04 37.273753 -121.759596 134 8803ft 288kts
21-Feb-21 19:05 37.199742 -121.767455 238 11840ft 325kts
21-Feb-21 19:06 37.218426 -121.864581 336 14920ft 323kts
21-Feb-21 19:07 37.308305 -121.861208 5 17905ft 339kts
21-Feb-21 19:08 37.403827 -121.860030 349 20539ft 352kts
21-Feb-21 19:09 37.498848 -121.896021 339 22948ft 363kts
21-Feb-21 19:10 37.591262 -121.948830 336 25174ft 371kts
21-Feb-21 19:11 37.691712 -121.971413 356 27226ft 373kts
21-Feb-21 19:12 37.796030 -121.979782 357 29092ft 379kts
21-Feb-21 19:13 37.902080 -121.988619 358 30716ft 386kts
21-Feb-21 19:14 38.009595 -121.997990 358 31946ft 391kts
21-Feb-21 19:15 38.118363 -122.007652 358 32416ft 394kts
21-Feb-21 19:16 38.227514 -122.017544 358 32443ft 393kts
21-Feb-21 19:17 38.336527 -122.028170 357 32447ft 393kts
21-Feb-21 19:18 38.445687 -122.040084 357 32439ft 394kts
21-Feb-21 19:19 38.555110 -122.052541 357 32455ft 395kts
21-Feb-21 19:20 38.663931 -122.065157 356 32456ft 394kts
21-Feb-21 19:21 38.773339 -122.077942 356 32459ft 394kts
21-Feb-21 19:22 38.882544 -122.090900 356 32520ft 396kts
21-Feb-21 19:23 38.991787 -122.103892 356 32526ft 396kts
21-Feb-21 19:24 39.101168 -122.116529 356 32528ft 396kts
21-Feb-21 19:25 39.211122 -122.129413 356 32531ft 397kts
21-Feb-21 19:26 39.320907 -122.142506 356 32536ft 397kts
21-Feb-21 19:27 39.431061 -122.155669 356 32542ft 398kts
21-Feb-21 19:28 39.540917 -122.168847 356 32551ft 398kts
21-Feb-21 19:29 39.651448 -122.182107 356 32561ft 399kts
21-Feb-21 19:30 39.761359 -122.195326 356 32551ft 398kts
21-Feb-21 19:31 39.872169 -122.208697 355 32486ft 399kts
21-Feb-21 19:32 39.982540 -122.222058 355 32498ft 400kts
21-Feb-21 19:33 40.093392 -122.229471 5 32510ft 398kts
21-Feb-21 19:34 40.203280 -122.208266 8 32506ft 401kts
21-Feb-21 19:35 40.312930 -122.183217 9 32509ft 401kts
21-Feb-21 19:36 40.422659 -122.157224 9 32507ft 401kts
21-Feb-21 19:37 40.532393 -122.130872 9 32638ft 403kts
21-Feb-21 19:38 40.642647 -122.104174 9 32651ft 402kts
21-Feb-21 19:39 40.752608 -122.077396 9 32658ft 404kts
21-Feb-21 19:40 40.862953 -122.050394 8 32673ft 404kts
21-Feb-21 19:41 40.973422 -122.023281 8 32685ft 404kts
21-Feb-21 19:42 41.084038 -121.995989 8 32689ft 404kts
21-Feb-21 19:43 41.194669 -121.968663 8 32727ft 406kts
21-Feb-21 19:44 41.305657 -121.941106 8 32734ft 406kts
21-Feb-21 19:45 41.416903 -121.913410 8 32749ft 407kts
21-Feb-21 19:46 41.528251 -121.885601 8 32769ft 409kts
21-Feb-21 19:47 41.639665 -121.857621 8 32767ft 408kts
21-Feb-21 19:48 41.751363 -121.829485 8 32760ft 409kts
21-Feb-21 19:49 41.863098 -121.801238 8 32753ft 409kts
21-Feb-21 19:50 41.974403 -121.773008 8 32635ft 411kts
21-Feb-21 19:51 42.086189 -121.744555 7 32591ft 409kts
21-Feb-21 19:52 42.198220 -121.743466 351 32599ft 406kts
21-Feb-21 19:53 42.309971 -121.765280 350 32606ft 406kts
21-Feb-21 19:54 42.421203 -121.789441 349 32593ft 404kts
21-Feb-21 19:55 42.532189 -121.814333 349 32609ft 405kts
21-Feb-21 19:56 42.643072 -121.839532 349 32603ft 405kts
21-Feb-21 19:57 42.753603 -121.864870 349 32596ft 405kts
21-Feb-21 19:58 42.864324 -121.890384 348 32682ft 404kts
21-Feb-21 19:59 42.975365 -121.916100 348 32689ft 403kts
21-Feb-21 20:00 43.085425 -121.941655 348 32683ft 403kts
21-Feb-21 20:01 43.196205 -121.967469 348 32671ft 403kts
21-Feb-21 20:02 43.306775 -121.993379 348 32674ft 403kts
21-Feb-21 20:03 43.417574 -122.019467 348 32669ft 403kts
21-Feb-21 20:04 43.527837 -122.045516 348 32661ft 404kts
21-Feb-21 20:05 43.638490 -122.071771 348 32653ft 404kts
21-Feb-21 20:06 43.748963 -122.097997 348 32668ft 403kts
21-Feb-21 20:07 43.859808 -122.124433 348 32674ft 403kts
21-Feb-21 20:09 43.970277 -122.150948 348 32668ft 403kts
21-Feb-21 20:10 44.080913 -122.177610 347 32654ft 403kts
21-Feb-21 20:11 44.191374 -122.204328 348 32649ft 403kts
21-Feb-21 20:12 44.299597 -122.230573 348 32618ft 403kts
21-Feb-21 20:13 44.410248 -122.257466 348 32623ft 404kts
21-Feb-21 20:14 44.520608 -122.284590 347 32610ft 403kts
21-Feb-21 20:15 44.631351 -122.311665 348 32623ft 403kts
21-Feb-21 20:16 44.742023 -122.338859 347 32623ft 405kts
21-Feb-21 20:17 44.852833 -122.366241 347 32605ft 406kts
21-Feb-21 20:18 44.963241 -122.393592 347 32586ft 406kts
21-Feb-21 20:19 45.074111 -122.421230 347 32589ft 404kts
21-Feb-21 20:20 45.185036 -122.449006 347 32572ft 404kts
21-Feb-21 20:21 45.295562 -122.476747 347 32563ft 405kts
21-Feb-21 20:22 45.406347 -122.504657 347 32542ft 405kts
21-Feb-21 20:23 45.517300 -122.532739 347 32548ft 404kts
21-Feb-21 20:24 45.627175 -122.560672 347 32558ft 405kts
21-Feb-21 20:25 45.737675 -122.588787 347 32555ft 405kts
21-Feb-21 20:26 45.848698 -122.616335 347 32521ft 404kts
21-Feb-21 20:27 45.959375 -122.643761 346 32521ft 406kts
21-Feb-21 20:28 46.069696 -122.671049 347 30133ft 400kts
21-Feb-21 20:29 46.177133 -122.693619 348 27325ft 383kts
21-Feb-21 20:29 46.262860 -122.710587 347 24137ft 364kts
21-Feb-21 20:31 46.375538 -122.722524 351 18894ft 336kts
21-Feb-21 20:31 46.451717 -122.726048 350 15128ft 325kts
21-Feb-21 20:33 46.554032 -122.731268 350 11879ft 318kts
21-Feb-21 20:34 46.638736 -122.733846 351 12094ft 300kts
21-Feb-21 20:35 46.721958 -122.736561 351 12149ft 300kts
21-Feb-21 20:36 46.804567 -122.710153 22 12109ft 321kts
21-Feb-21 20:36 46.865771 -122.645830 31 12090ft 329kts
21-Feb-21 20:37 46.939689 -122.570520 17 12107ft 320kts
21-Feb-21 20:38 47.016982 -122.527278 9 10943ft 286kts
21-Feb-21 20:40 47.107707 -122.495756 1 10087ft 284kts
21-Feb-21 20:41 47.185536 -122.480851 358 10069ft 281kts
21-Feb-21 20:41 47.248962 -122.470805 357 10074ft 261kts
21-Feb-21 20:42 47.319390 -122.460267 357 8669ft 256kts
21-Feb-21 20:43 47.390170 -122.454832 352 7461ft 253kts
21-Feb-21 20:45 47.468216 -122.454785 351 6750ft 224kts
21-Feb-21 20:45 47.522087 -122.455520 351 4569ft 234kts
21-Feb-21 20:46 47.586239 -122.458511 351 3137ft 228kts
21-Feb-21 20:47 47.646943 -122.462207 351 3038ft 220kts
21-Feb-21 20:48 47.707868 -122.467067 351 3032ft 218kts
21-Feb-21 20:49 47.752863 -122.427779 91 2945ft 214kts
21-Feb-21 20:50 47.751265 -122.340279 99 2938ft 213kts
21-Feb-21 20:51 47.709909 -122.305443 186 2932ft 185kts
21-Feb-21 20:52 47.658810 -122.306204 185 3009ft 184kts
21-Feb-21 20:53 47.616392 -122.306276 188 3009ft 125kts
21-Feb-21 20:55 47.579701 -122.306867 189 2640ft 109kts
21-Feb-21 20:55 47.555400 -122.307009 187 2206ft 104kts
21-Feb-21 20:56 47.525653 -122.307565 186 1630ft 112kts
21-Feb-21 20:57 47.494138 -122.307590 183 1108ft 117kts
21-Feb-21 20:58 47.461557 -122.307798 180 445ft 115kts
21-Feb-21 20:59 47.445883 -122.306967 98 389ft 10kts
21-Feb-21 21:00 47.445655 -122.306419 150 389ft 5kts
21-Feb-21 21:01 47.441301 -122.306346 180 384ft 20kts
21-Feb-21 21:02 47.439919 -122.304294 90 382ft 18kts
21-Feb-21 21:03 47.441617 -122.302854 294 384ft 0kts
21-Feb-21 21:04 47.441706 -122.303109 299 384ft 0kts
21-Feb-21 21:05 47.441706 -122.303109 299 384ft 0kts

Navigation Log

Ident Type
Flight plan parsing failed, navigation log unavailable